sensor_id;sensor_type;location;lat;lon;timestamp;temperature;humidity
16521;DHT22;8373;48.110;11.522;2023-04-15T00:01:50;9.20;81.10
16521;DHT22;8373;48.110;11.522;2023-04-15T00:04:21;9.20;80.90
16521;DHT22;8373;48.110;11.522;2023-04-15T00:06:50;9.10;81.10
16521;DHT22;8373;48.110;11.522;2023-04-15T00:09:20;9.20;81.70
16521;DHT22;8373;48.110;11.522;2023-04-15T00:11:47;9.20;81.40
16521;DHT22;8373;48.110;11.522;2023-04-15T00:14:15;9.20;81.30
16521;DHT22;8373;48.110;11.522;2023-04-15T00:16:42;9.10;81.20
16521;DHT22;8373;48.110;11.522;2023-04-15T00:19:09;9.10;81.30
16521;DHT22;8373;48.110;11.522;2023-04-15T00:21:36;9.10;81.40
16521;DHT22;8373;48.110;11.522;2023-04-15T00:24:03;9.10;81.20
16521;DHT22;8373;48.110;11.522;2023-04-15T00:26:32;9.10;81.40
16521;DHT22;8373;48.110;11.522;2023-04-15T00:29:00;9.10;81.40
16521;DHT22;8373;48.110;11.522;2023-04-15T00:31:27;9.10;81.50
16521;DHT22;8373;48.110;11.522;2023-04-15T00:33:54;9.10;81.60
16521;DHT22;8373;48.110;11.522;2023-04-15T00:36:21;9.00;81.50
16521;DHT22;8373;48.110;11.522;2023-04-15T00:38:49;9.00;81.40
16521;DHT22;8373;48.110;11.522;2023-04-15T00:41:16;9.10;81.50
16521;DHT22;8373;48.110;11.522;2023-04-15T00:43:45;9.10;81.20
16521;DHT22;8373;48.110;11.522;2023-04-15T00:46:13;9.00;81.10
16521;DHT22;8373;48.110;11.522;2023-04-15T00:48:41;9.00;81.00
16521;DHT22;8373;48.110;11.522;2023-04-15T00:51:09;9.00;81.10
16521;DHT22;8373;48.110;11.522;2023-04-15T00:53:36;8.90;80.90
16521;DHT22;8373;48.110;11.522;2023-04-15T00:56:03;8.80;80.90
16521;DHT22;8373;48.110;11.522;2023-04-15T00:58:31;8.80;81.40
16521;DHT22;8373;48.110;11.522;2023-04-15T01:01:00;8.70;81.60
16521;DHT22;8373;48.110;11.522;2023-04-15T01:03:30;8.70;81.80
16521;DHT22;8373;48.110;11.522;2023-04-15T01:05:57;8.60;81.90
16521;DHT22;8373;48.110;11.522;2023-04-15T01:08:26;8.60;81.80
16521;DHT22;8373;48.110;11.522;2023-04-15T01:10:53;8.60;82.00
16521;DHT22;8373;48.110;11.522;2023-04-15T01:13:22;8.60;82.30
16521;DHT22;8373;48.110;11.522;2023-04-15T01:15:49;8.70;82.60
16521;DHT22;8373;48.110;11.522;2023-04-15T01:18:18;8.70;82.30
16521;DHT22;8373;48.110;11.522;2023-04-15T01:20:45;8.80;82.30
16521;DHT22;8373;48.110;11.522;2023-04-15T01:23:12;8.80;82.00
16521;DHT22;8373;48.110;11.522;2023-04-15T01:25:41;8.80;81.90
16521;DHT22;8373;48.110;11.522;2023-04-15T01:28:09;8.80;81.70
16521;DHT22;8373;48.110;11.522;2023-04-15T01:30:36;8.80;81.50
16521;DHT22;8373;48.110;11.522;2023-04-15T01:33:04;8.80;81.40
16521;DHT22;8373;48.110;11.522;2023-04-15T01:35:31;8.80;81.40
16521;DHT22;8373;48.110;11.522;2023-04-15T01:38:02;8.80;81.20
16521;DHT22;8373;48.110;11.522;2023-04-15T01:40:31;8.80;81.40
16521;DHT22;8373;48.110;11.522;2023-04-15T01:42:59;8.80;81.40
16521;DHT22;8373;48.110;11.522;2023-04-15T01:45:26;8.80;81.10
16521;DHT22;8373;48.110;11.522;2023-04-15T01:47:53;8.80;80.90
16521;DHT22;8373;48.110;11.522;2023-04-15T01:50:20;8.80;81.00
16521;DHT22;8373;48.110;11.522;2023-04-15T01:52:47;8.80;81.00
16521;DHT22;8373;48.110;11.522;2023-04-15T01:55:14;8.90;81.30
16521;DHT22;8373;48.110;11.522;2023-04-15T01:57:41;8.90;80.90
16521;DHT22;8373;48.110;11.522;2023-04-15T02:00:10;8.80;80.60
16521;DHT22;8373;48.110;11.522;2023-04-15T02:02:37;8.80;80.90
16521;DHT22;8373;48.110;11.522;2023-04-15T02:05:05;8.70;80.90
16521;DHT22;8373;48.110;11.522;2023-04-15T02:07:32;8.70;81.10
16521;DHT22;8373;48.110;11.522;2023-04-15T02:09:59;8.70;81.00
16521;DHT22;8373;48.110;11.522;2023-04-15T02:12:26;8.70;81.00
16521;DHT22;8373;48.110;11.522;2023-04-15T02:14:53;8.70;80.90
16521;DHT22;8373;48.110;11.522;2023-04-15T02:17:21;8.70;80.70
16521;DHT22;8373;48.110;11.522;2023-04-15T02:19:48;8.60;80.80
16521;DHT22;8373;48.110;11.522;2023-04-15T02:22:15;8.60;81.20
16521;DHT22;8373;48.110;11.522;2023-04-15T02:24:44;8.60;81.30
16521;DHT22;8373;48.110;11.522;2023-04-15T02:27:15;8.60;81.20
16521;DHT22;8373;48.110;11.522;2023-04-15T02:29:42;8.60;81.20
16521;DHT22;8373;48.110;11.522;2023-04-15T02:32:10;8.60;81.20
16521;DHT22;8373;48.110;11.522;2023-04-15T02:34:39;8.70;81.30
16521;DHT22;8373;48.110;11.522;2023-04-15T02:37:07;8.80;81.20
16521;DHT22;8373;48.110;11.522;2023-04-15T02:39:34;8.80;80.80
16521;DHT22;8373;48.110;11.522;2023-04-15T02:42:01;8.80;80.60
16521;DHT22;8373;48.110;11.522;2023-04-15T02:44:29;8.90;80.40
16521;DHT22;8373;48.110;11.522;2023-04-15T02:46:57;8.80;79.80
16521;DHT22;8373;48.110;11.522;2023-04-15T02:49:24;8.80;80.20
16521;DHT22;8373;48.110;11.522;2023-04-15T02:51:52;8.80;80.20
16521;DHT22;8373;48.110;11.522;2023-04-15T02:54:21;8.80;80.10
16521;DHT22;8373;48.110;11.522;2023-04-15T02:56:48;8.70;80.00
16521;DHT22;8373;48.110;11.522;2023-04-15T02:59:15;8.70;79.90
16521;DHT22;8373;48.110;11.522;2023-04-15T03:01:42;8.60;79.90
16521;DHT22;8373;48.110;11.522;2023-04-15T03:04:09;8.60;79.80
16521;DHT22;8373;48.110;11.522;2023-04-15T03:06:36;8.50;79.80
16521;DHT22;8373;48.110;11.522;2023-04-15T03:09:04;8.50;80.10
16521;DHT22;8373;48.110;11.522;2023-04-15T03:11:31;8.40;80.00
16521;DHT22;8373;48.110;11.522;2023-04-15T03:13:59;8.40;80.30
16521;DHT22;8373;48.110;11.522;2023-04-15T03:16:26;8.40;80.00
16521;DHT22;8373;48.110;11.522;2023-04-15T03:18:53;8.40;80.20
16521;DHT22;8373;48.110;11.522;2023-04-15T03:21:20;8.30;80.20
16521;DHT22;8373;48.110;11.522;2023-04-15T03:23:48;8.40;80.30
16521;DHT22;8373;48.110;11.522;2023-04-15T03:26:26;8.40;80.00
16521;DHT22;8373;48.110;11.522;2023-04-15T03:28:53;8.40;80.10
16521;DHT22;8373;48.110;11.522;2023-04-15T03:31:20;8.50;80.60
16521;DHT22;8373;48.110;11.522;2023-04-15T03:33:47;8.50;80.20
16521;DHT22;8373;48.110;11.522;2023-04-15T03:36:14;8.50;79.80
16521;DHT22;8373;48.110;11.522;2023-04-15T03:38:41;8.50;79.70
16521;DHT22;8373;48.110;11.522;2023-04-15T03:41:08;8.60;79.70
16521;DHT22;8373;48.110;11.522;2023-04-15T03:43:37;8.60;79.80
16521;DHT22;8373;48.110;11.522;2023-04-15T03:46:04;8.70;79.30
16521;DHT22;8373;48.110;11.522;2023-04-15T03:48:31;8.70;78.90
16521;DHT22;8373;48.110;11.522;2023-04-15T03:50:58;8.70;78.80
16521;DHT22;8373;48.110;11.522;2023-04-15T03:53:25;8.70;78.50
16521;DHT22;8373;48.110;11.522;2023-04-15T03:55:52;8.70;78.30
16521;DHT22;8373;48.110;11.522;2023-04-15T03:58:19;8.70;78.20
16521;DHT22;8373;48.110;11.522;2023-04-15T04:00:47;8.70;77.90
16521;DHT22;8373;48.110;11.522;2023-04-15T04:03:14;8.70;78.00
16521;DHT22;8373;48.110;11.522;2023-04-15T04:05:41;8.80;78.30
16521;DHT22;8373;48.110;11.522;2023-04-15T04:08:09;8.80;78.40
16521;DHT22;8373;48.110;11.522;2023-04-15T04:10:38;8.80;78.00
16521;DHT22;8373;48.110;11.522;2023-04-15T04:13:05;8.80;77.70
16521;DHT22;8373;48.110;11.522;2023-04-15T04:15:32;8.90;77.90
16521;DHT22;8373;48.110;11.522;2023-04-15T04:18:00;8.80;77.30
16521;DHT22;8373;48.110;11.522;2023-04-15T04:20:28;8.80;77.00
16521;DHT22;8373;48.110;11.522;2023-04-15T04:22:56;8.80;77.20
16521;DHT22;8373;48.110;11.522;2023-04-15T04:25:23;8.80;77.40
16521;DHT22;8373;48.110;11.522;2023-04-15T04:27:50;8.80;77.10
16521;DHT22;8373;48.110;11.522;2023-04-15T04:30:17;8.90;77.10
16521;DHT22;8373;48.110;11.522;2023-04-15T04:32:44;8.80;76.70
16521;DHT22;8373;48.110;11.522;2023-04-15T04:35:15;8.90;76.80
16521;DHT22;8373;48.110;11.522;2023-04-15T04:37:42;8.80;76.40
16521;DHT22;8373;48.110;11.522;2023-04-15T04:40:10;8.80;76.20
16521;DHT22;8373;48.110;11.522;2023-04-15T04:42:37;8.70;76.10
16521;DHT22;8373;48.110;11.522;2023-04-15T04:45:05;8.70;76.20
16521;DHT22;8373;48.110;11.522;2023-04-15T04:47:33;8.70;76.30
16521;DHT22;8373;48.110;11.522;2023-04-15T04:50:00;8.70;75.90
16521;DHT22;8373;48.110;11.522;2023-04-15T04:52:28;8.60;75.70
16521;DHT22;8373;48.110;11.522;2023-04-15T04:54:55;8.50;75.70
16521;DHT22;8373;48.110;11.522;2023-04-15T04:57:22;8.50;75.90
16521;DHT22;8373;48.110;11.522;2023-04-15T04:59:49;8.50;76.50
16521;DHT22;8373;48.110;11.522;2023-04-15T05:02:16;8.50;75.60
16521;DHT22;8373;48.110;11.522;2023-04-15T05:04:43;8.50;75.60
16521;DHT22;8373;48.110;11.522;2023-04-15T05:07:10;8.50;75.40
16521;DHT22;8373;48.110;11.522;2023-04-15T05:09:38;8.50;75.40
16521;DHT22;8373;48.110;11.522;2023-04-15T05:12:05;8.50;75.10
16521;DHT22;8373;48.110;11.522;2023-04-15T05:14:33;8.50;75.00
16521;DHT22;8373;48.110;11.522;2023-04-15T05:17:00;8.50;75.40
16521;DHT22;8373;48.110;11.522;2023-04-15T05:19:27;8.60;75.20
16521;DHT22;8373;48.110;11.522;2023-04-15T05:21:54;8.60;74.60
16521;DHT22;8373;48.110;11.522;2023-04-15T05:24:21;8.50;74.20
16521;DHT22;8373;48.110;11.522;2023-04-15T05:26:50;8.50;74.00
16521;DHT22;8373;48.110;11.522;2023-04-15T05:29:17;8.50;74.20
16521;DHT22;8373;48.110;11.522;2023-04-15T05:31:44;8.40;74.10
16521;DHT22;8373;48.110;11.522;2023-04-15T05:34:11;8.40;73.90
16521;DHT22;8373;48.110;11.522;2023-04-15T05:36:40;8.50;74.20
16521;DHT22;8373;48.110;11.522;2023-04-15T05:39:07;8.30;73.60
16521;DHT22;8373;48.110;11.522;2023-04-15T05:41:34;8.30;74.00
16521;DHT22;8373;48.110;11.522;2023-04-15T05:44:02;8.30;73.50
16521;DHT22;8373;48.110;11.522;2023-04-15T05:46:29;8.30;73.80
16521;DHT22;8373;48.110;11.522;2023-04-15T05:48:56;8.40;73.60
16521;DHT22;8373;48.110;11.522;2023-04-15T05:51:23;8.40;73.00
16521;DHT22;8373;48.110;11.522;2023-04-15T05:53:50;8.50;73.10
16521;DHT22;8373;48.110;11.522;2023-04-15T05:56:17;8.40;72.50
16521;DHT22;8373;48.110;11.522;2023-04-15T05:58:44;8.40;72.50
16521;DHT22;8373;48.110;11.522;2023-04-15T06:01:13;8.40;72.50
16521;DHT22;8373;48.110;11.522;2023-04-15T06:03:40;8.40;72.50
16521;DHT22;8373;48.110;11.522;2023-04-15T06:06:07;8.50;72.60
16521;DHT22;8373;48.110;11.522;2023-04-15T06:08:34;8.50;71.90
16521;DHT22;8373;48.110;11.522;2023-04-15T06:11:01;8.50;71.50
16521;DHT22;8373;48.110;11.522;2023-04-15T06:13:28;8.40;71.40
16521;DHT22;8373;48.110;11.522;2023-04-15T06:15:55;8.30;70.80
16521;DHT22;8373;48.110;11.522;2023-04-15T06:18:24;8.30;71.10
16521;DHT22;8373;48.110;11.522;2023-04-15T06:20:51;8.30;70.80
16521;DHT22;8373;48.110;11.522;2023-04-15T06:23:18;8.40;71.00
16521;DHT22;8373;48.110;11.522;2023-04-15T06:25:45;8.40;71.10
16521;DHT22;8373;48.110;11.522;2023-04-15T06:28:12;8.50;70.40
16521;DHT22;8373;48.110;11.522;2023-04-15T06:30:39;8.40;69.80
16521;DHT22;8373;48.110;11.522;2023-04-15T06:33:06;8.40;69.70
16521;DHT22;8373;48.110;11.522;2023-04-15T06:35:36;8.50;70.00
16521;DHT22;8373;48.110;11.522;2023-04-15T06:38:03;8.50;69.90
16521;DHT22;8373;48.110;11.522;2023-04-15T06:40:30;8.60;69.90
16521;DHT22;8373;48.110;11.522;2023-04-15T06:42:57;8.60;69.40
16521;DHT22;8373;48.110;11.522;2023-04-15T06:45:24;8.60;68.80
16521;DHT22;8373;48.110;11.522;2023-04-15T06:47:52;8.70;68.70
16521;DHT22;8373;48.110;11.522;2023-04-15T06:50:18;8.70;68.10
16521;DHT22;8373;48.110;11.522;2023-04-15T06:52:47;8.80;67.90
16521;DHT22;8373;48.110;11.522;2023-04-15T06:55:14;8.80;68.00
16521;DHT22;8373;48.110;11.522;2023-04-15T06:57:41;8.90;67.40
16521;DHT22;8373;48.110;11.522;2023-04-15T07:00:09;9.00;66.90
16521;DHT22;8373;48.110;11.522;2023-04-15T07:02:36;9.00;66.80
16521;DHT22;8373;48.110;11.522;2023-04-15T07:05:05;9.00;66.50
16521;DHT22;8373;48.110;11.522;2023-04-15T07:07:32;9.10;66.40
16521;DHT22;8373;48.110;11.522;2023-04-15T07:10:01;9.20;66.60
16521;DHT22;8373;48.110;11.522;2023-04-15T07:12:28;9.30;66.50
16521;DHT22;8373;48.110;11.522;2023-04-15T07:14:55;9.40;65.60
16521;DHT22;8373;48.110;11.522;2023-04-15T07:17:22;9.50;65.40
16521;DHT22;8373;48.110;11.522;2023-04-15T07:19:49;9.60;64.60
16521;DHT22;8373;48.110;11.522;2023-04-15T07:22:16;9.70;64.40
16521;DHT22;8373;48.110;11.522;2023-04-15T07:24:42;9.70;63.30
16521;DHT22;8373;48.110;11.522;2023-04-15T07:27:11;9.70;63.50
16521;DHT22;8373;48.110;11.522;2023-04-15T07:29:38;9.80;62.90
16521;DHT22;8373;48.110;11.522;2023-04-15T07:32:05;9.80;63.20
16521;DHT22;8373;48.110;11.522;2023-04-15T07:34:32;10.00;62.10
16521;DHT22;8373;48.110;11.522;2023-04-15T07:36:58;10.20;62.20
16521;DHT22;8373;48.110;11.522;2023-04-15T07:39:26;10.40;61.40
16521;DHT22;8373;48.110;11.522;2023-04-15T07:41:53;10.60;60.50
16521;DHT22;8373;48.110;11.522;2023-04-15T07:44:22;10.70;59.90
16521;DHT22;8373;48.110;11.522;2023-04-15T07:46:49;10.80;59.60
16521;DHT22;8373;48.110;11.522;2023-04-15T07:49:16;11.00;59.70
16521;DHT22;8373;48.110;11.522;2023-04-15T07:51:43;11.20;59.00
16521;DHT22;8373;48.110;11.522;2023-04-15T07:54:10;11.30;58.10
16521;DHT22;8373;48.110;11.522;2023-04-15T07:56:38;11.50;58.60
16521;DHT22;8373;48.110;11.522;2023-04-15T07:59:05;11.70;57.00
16521;DHT22;8373;48.110;11.522;2023-04-15T08:01:33;11.80;56.20
16521;DHT22;8373;48.110;11.522;2023-04-15T08:04:01;12.10;56.50
16521;DHT22;8373;48.110;11.522;2023-04-15T08:06:28;12.30;54.70
16521;DHT22;8373;48.110;11.522;2023-04-15T08:08:55;12.50;53.90
16521;DHT22;8373;48.110;11.522;2023-04-15T08:11:22;13.10;54.10
16521;DHT22;8373;48.110;11.522;2023-04-15T08:13:49;13.90;52.80
16521;DHT22;8373;48.110;11.522;2023-04-15T08:16:18;14.00;50.50
16521;DHT22;8373;48.110;11.522;2023-04-15T08:18:47;14.10;50.30
16521;DHT22;8373;48.110;11.522;2023-04-15T08:21:15;14.10;50.00
16521;DHT22;8373;48.110;11.522;2023-04-15T08:23:43;14.10;49.20
16521;DHT22;8373;48.110;11.522;2023-04-15T08:26:11;13.90;49.30
16521;DHT22;8373;48.110;11.522;2023-04-15T08:28:40;14.00;49.70
16521;DHT22;8373;48.110;11.522;2023-04-15T08:31:07;13.90;50.40
16521;DHT22;8373;48.110;11.522;2023-04-15T08:33:34;13.90;50.80
16521;DHT22;8373;48.110;11.522;2023-04-15T08:36:03;13.80;50.50
16521;DHT22;8373;48.110;11.522;2023-04-15T08:38:31;13.80;50.70
16521;DHT22;8373;48.110;11.522;2023-04-15T08:40:59;13.70;50.60
16521;DHT22;8373;48.110;11.522;2023-04-15T08:43:33;13.50;50.70
16521;DHT22;8373;48.110;11.522;2023-04-15T08:46:01;12.80;50.70
16521;DHT22;8373;48.110;11.522;2023-04-15T08:48:32;12.50;51.70
16521;DHT22;8373;48.110;11.522;2023-04-15T08:50:59;12.20;52.40
16521;DHT22;8373;48.110;11.522;2023-04-15T08:53:28;12.00;53.60
16521;DHT22;8373;48.110;11.522;2023-04-15T08:55:56;12.00;54.30
16521;DHT22;8373;48.110;11.522;2023-04-15T08:58:26;12.00;54.50
16521;DHT22;8373;48.110;11.522;2023-04-15T09:00:53;11.80;54.30
16521;DHT22;8373;48.110;11.522;2023-04-15T09:03:20;11.60;54.20
16521;DHT22;8373;48.110;11.522;2023-04-15T09:05:49;11.60;54.50
16521;DHT22;8373;48.110;11.522;2023-04-15T09:08:16;11.70;55.00
16521;DHT22;8373;48.110;11.522;2023-04-15T09:10:44;11.70;55.10
16521;DHT22;8373;48.110;11.522;2023-04-15T09:13:11;11.70;54.70
16521;DHT22;8373;48.110;11.522;2023-04-15T09:15:39;11.60;54.40
16521;DHT22;8373;48.110;11.522;2023-04-15T09:18:06;11.60;54.40
16521;DHT22;8373;48.110;11.522;2023-04-15T09:20:38;11.70;54.40
16521;DHT22;8373;48.110;11.522;2023-04-15T09:23:11;11.70;54.40
16521;DHT22;8373;48.110;11.522;2023-04-15T09:25:39;11.70;54.40
16521;DHT22;8373;48.110;11.522;2023-04-15T09:28:09;11.90;54.80
16521;DHT22;8373;48.110;11.522;2023-04-15T09:30:36;12.10;54.60
16521;DHT22;8373;48.110;11.522;2023-04-15T09:33:03;12.30;54.30
16521;DHT22;8373;48.110;11.522;2023-04-15T09:35:33;12.40;54.20
16521;DHT22;8373;48.110;11.522;2023-04-15T09:38:04;12.40;53.90
16521;DHT22;8373;48.110;11.522;2023-04-15T09:40:33;12.40;54.10
16521;DHT22;8373;48.110;11.522;2023-04-15T09:43:01;12.40;54.40
16521;DHT22;8373;48.110;11.522;2023-04-15T09:45:30;12.50;55.10
16521;DHT22;8373;48.110;11.522;2023-04-15T09:47:57;12.70;55.30
16521;DHT22;8373;48.110;11.522;2023-04-15T09:50:27;12.80;54.00
16521;DHT22;8373;48.110;11.522;2023-04-15T09:52:55;12.90;53.50
16521;DHT22;8373;48.110;11.522;2023-04-15T09:55:22;12.90;52.50
16521;DHT22;8373;48.110;11.522;2023-04-15T09:57:49;13.00;52.30
16521;DHT22;8373;48.110;11.522;2023-04-15T10:00:16;12.90;51.90
16521;DHT22;8373;48.110;11.522;2023-04-15T10:02:46;12.90;51.90
16521;DHT22;8373;48.110;11.522;2023-04-15T10:05:14;12.70;51.50
16521;DHT22;8373;48.110;11.522;2023-04-15T10:07:42;12.60;51.60
16521;DHT22;8373;48.110;11.522;2023-04-15T10:10:10;12.50;51.80
16521;DHT22;8373;48.110;11.522;2023-04-15T10:12:40;12.30;51.60
16521;DHT22;8373;48.110;11.522;2023-04-15T10:15:13;12.20;51.80
16521;DHT22;8373;48.110;11.522;2023-04-15T10:17:44;12.20;52.30
16521;DHT22;8373;48.110;11.522;2023-04-15T10:20:12;12.20;52.20
16521;DHT22;8373;48.110;11.522;2023-04-15T10:22:41;12.40;52.90
16521;DHT22;8373;48.110;11.522;2023-04-15T10:25:09;12.40;52.70
16521;DHT22;8373;48.110;11.522;2023-04-15T10:27:38;12.30;52.60
16521;DHT22;8373;48.110;11.522;2023-04-15T10:30:07;12.30;53.10
16521;DHT22;8373;48.110;11.522;2023-04-15T10:32:35;12.20;53.00
16521;DHT22;8373;48.110;11.522;2023-04-15T10:35:04;12.20;53.30
16521;DHT22;8373;48.110;11.522;2023-04-15T10:37:34;12.30;53.50
16521;DHT22;8373;48.110;11.522;2023-04-15T10:40:23;12.30;53.60
16521;DHT22;8373;48.110;11.522;2023-04-15T10:42:50;12.40;53.70
16521;DHT22;8373;48.110;11.522;2023-04-15T10:45:18;12.50;53.80
16521;DHT22;8373;48.110;11.522;2023-04-15T10:47:45;12.50;53.30
16521;DHT22;8373;48.110;11.522;2023-04-15T10:50:13;12.40;52.80
16521;DHT22;8373;48.110;11.522;2023-04-15T10:52:40;12.30;52.50
16521;DHT22;8373;48.110;11.522;2023-04-15T10:55:19;12.30;53.10
16521;DHT22;8373;48.110;11.522;2023-04-15T10:57:48;12.50;53.60
16521;DHT22;8373;48.110;11.522;2023-04-15T11:00:18;12.50;53.30
16521;DHT22;8373;48.110;11.522;2023-04-15T11:02:47;12.50;53.30
16521;DHT22;8373;48.110;11.522;2023-04-15T11:05:19;12.60;53.10
16521;DHT22;8373;48.110;11.522;2023-04-15T11:07:49;12.70;53.30
16521;DHT22;8373;48.110;11.522;2023-04-15T11:13:23;12.80;52.60
16521;DHT22;8373;48.110;11.522;2023-04-15T11:15:55;12.60;52.50
16521;DHT22;8373;48.110;11.522;2023-04-15T11:18:25;12.50;52.70
16521;DHT22;8373;48.110;11.522;2023-04-15T11:20:55;12.50;52.90
16521;DHT22;8373;48.110;11.522;2023-04-15T11:23:34;12.40;52.80
16521;DHT22;8373;48.110;11.522;2023-04-15T11:26:02;12.50;53.20
16521;DHT22;8373;48.110;11.522;2023-04-15T11:28:30;12.60;53.30
16521;DHT22;8373;48.110;11.522;2023-04-15T11:31:04;12.60;53.00
16521;DHT22;8373;48.110;11.522;2023-04-15T11:33:34;12.50;52.40
16521;DHT22;8373;48.110;11.522;2023-04-15T11:36:02;12.50;52.50
16521;DHT22;8373;48.110;11.522;2023-04-15T11:38:29;12.40;52.80
16521;DHT22;8373;48.110;11.522;2023-04-15T11:40:57;12.40;53.30
16521;DHT22;8373;48.110;11.522;2023-04-15T11:43:24;12.20;53.70
16521;DHT22;8373;48.110;11.522;2023-04-15T11:45:52;12.20;54.40
16521;DHT22;8373;48.110;11.522;2023-04-15T11:48:22;12.20;54.60
16521;DHT22;8373;48.110;11.522;2023-04-15T11:50:53;12.20;54.70
16521;DHT22;8373;48.110;11.522;2023-04-15T11:53:22;12.10;54.70
16521;DHT22;8373;48.110;11.522;2023-04-15T11:55:51;12.10;55.30
16521;DHT22;8373;48.110;11.522;2023-04-15T11:58:18;12.20;55.30
16521;DHT22;8373;48.110;11.522;2023-04-15T12:00:47;12.00;54.40
16521;DHT22;8373;48.110;11.522;2023-04-15T12:03:20;12.00;54.90
16521;DHT22;8373;48.110;11.522;2023-04-15T12:06:07;11.90;55.10
16521;DHT22;8373;48.110;11.522;2023-04-15T12:08:56;11.80;55.60
16521;DHT22;8373;48.110;11.522;2023-04-15T12:11:32;11.60;55.70
16521;DHT22;8373;48.110;11.522;2023-04-15T12:14:07;11.50;56.60
16521;DHT22;8373;48.110;11.522;2023-04-15T12:16:36;11.50;56.50
16521;DHT22;8373;48.110;11.522;2023-04-15T12:19:08;11.50;56.80
16521;DHT22;8373;48.110;11.522;2023-04-15T12:21:38;11.40;57.10
16521;DHT22;8373;48.110;11.522;2023-04-15T12:24:07;11.40;57.20
16521;DHT22;8373;48.110;11.522;2023-04-15T12:26:36;11.40;57.40
16521;DHT22;8373;48.110;11.522;2023-04-15T12:29:05;11.40;57.30
16521;DHT22;8373;48.110;11.522;2023-04-15T12:31:34;11.50;57.80
16521;DHT22;8373;48.110;11.522;2023-04-15T12:34:02;11.50;57.10
16521;DHT22;8373;48.110;11.522;2023-04-15T12:36:30;11.50;57.00
16521;DHT22;8373;48.110;11.522;2023-04-15T12:39:01;11.60;57.00
16521;DHT22;8373;48.110;11.522;2023-04-15T12:41:30;11.60;56.90
16521;DHT22;8373;48.110;11.522;2023-04-15T12:43:57;11.50;56.50
16521;DHT22;8373;48.110;11.522;2023-04-15T12:46:24;11.60;56.80
16521;DHT22;8373;48.110;11.522;2023-04-15T12:48:51;11.60;56.90
16521;DHT22;8373;48.110;11.522;2023-04-15T12:51:19;11.80;57.20
16521;DHT22;8373;48.110;11.522;2023-04-15T12:53:46;12.00;57.10
16521;DHT22;8373;48.110;11.522;2023-04-15T12:56:14;12.30;56.70
16521;DHT22;8373;48.110;11.522;2023-04-15T12:58:42;12.40;54.80
16521;DHT22;8373;48.110;11.522;2023-04-15T13:01:09;12.40;53.30
16521;DHT22;8373;48.110;11.522;2023-04-15T13:03:36;12.40;52.50
16521;DHT22;8373;48.110;11.522;2023-04-15T13:06:03;12.40;52.70
16521;DHT22;8373;48.110;11.522;2023-04-15T13:08:30;12.50;52.50
16521;DHT22;8373;48.110;11.522;2023-04-15T13:10:57;12.40;51.80
16521;DHT22;8373;48.110;11.522;2023-04-15T13:13:24;12.30;51.80
16521;DHT22;8373;48.110;11.522;2023-04-15T13:15:53;12.10;50.90
16521;DHT22;8373;48.110;11.522;2023-04-15T13:18:20;12.00;50.70
16521;DHT22;8373;48.110;11.522;2023-04-15T13:20:48;11.90;50.60
16521;DHT22;8373;48.110;11.522;2023-04-15T13:23:15;11.80;50.00
16521;DHT22;8373;48.110;11.522;2023-04-15T13:25:42;11.80;49.90
16521;DHT22;8373;48.110;11.522;2023-04-15T13:28:10;11.70;50.00
16521;DHT22;8373;48.110;11.522;2023-04-15T13:30:37;11.60;50.00
16521;DHT22;8373;48.110;11.522;2023-04-15T13:33:06;11.60;50.20
16521;DHT22;8373;48.110;11.522;2023-04-15T13:35:33;11.70;50.60
16521;DHT22;8373;48.110;11.522;2023-04-15T13:38:00;11.60;50.40
16521;DHT22;8373;48.110;11.522;2023-04-15T13:40:27;11.60;51.10
16521;DHT22;8373;48.110;11.522;2023-04-15T13:42:54;11.60;50.90
16521;DHT22;8373;48.110;11.522;2023-04-15T13:45:22;11.50;51.30
16521;DHT22;8373;48.110;11.522;2023-04-15T13:47:49;11.40;52.10
16521;DHT22;8373;48.110;11.522;2023-04-15T13:50:17;11.40;52.90
16521;DHT22;8373;48.110;11.522;2023-04-15T13:52:44;11.40;54.00
16521;DHT22;8373;48.110;11.522;2023-04-15T13:55:11;11.40;54.80
16521;DHT22;8373;48.110;11.522;2023-04-15T13:57:38;11.30;55.10
16521;DHT22;8373;48.110;11.522;2023-04-15T14:00:06;11.20;56.00
16521;DHT22;8373;48.110;11.522;2023-04-15T14:02:33;11.20;56.80
16521;DHT22;8373;48.110;11.522;2023-04-15T14:05:00;11.30;57.40
16521;DHT22;8373;48.110;11.522;2023-04-15T14:07:29;11.30;56.10
16521;DHT22;8373;48.110;11.522;2023-04-15T14:09:56;11.20;55.90
16521;DHT22;8373;48.110;11.522;2023-04-15T14:12:23;11.20;56.30
16521;DHT22;8373;48.110;11.522;2023-04-15T14:14:50;11.20;56.80
16521;DHT22;8373;48.110;11.522;2023-04-15T14:17:17;11.30;56.70
16521;DHT22;8373;48.110;11.522;2023-04-15T14:19:44;11.40;56.60
16521;DHT22;8373;48.110;11.522;2023-04-15T14:22:11;11.40;56.60
16521;DHT22;8373;48.110;11.522;2023-04-15T14:24:39;11.50;56.50
16521;DHT22;8373;48.110;11.522;2023-04-15T14:27:06;11.60;56.30
16521;DHT22;8373;48.110;11.522;2023-04-15T14:29:35;11.60;54.90
16521;DHT22;8373;48.110;11.522;2023-04-15T14:32:02;11.60;55.20
16521;DHT22;8373;48.110;11.522;2023-04-15T14:34:29;11.70;55.10
16521;DHT22;8373;48.110;11.522;2023-04-15T14:36:56;11.80;54.60
16521;DHT22;8373;48.110;11.522;2023-04-15T14:39:23;11.80;53.20
16521;DHT22;8373;48.110;11.522;2023-04-15T14:41:53;11.80;52.70
16521;DHT22;8373;48.110;11.522;2023-04-15T14:44:20;11.70;52.90
16521;DHT22;8373;48.110;11.522;2023-04-15T14:46:48;11.90;53.00
16521;DHT22;8373;48.110;11.522;2023-04-15T14:49:16;11.90;52.40
16521;DHT22;8373;48.110;11.522;2023-04-15T14:51:43;11.80;52.00
16521;DHT22;8373;48.110;11.522;2023-04-15T14:54:11;11.80;52.00
16521;DHT22;8373;48.110;11.522;2023-04-15T14:56:37;11.80;52.30
16521;DHT22;8373;48.110;11.522;2023-04-15T14:59:06;11.70;52.30
16521;DHT22;8373;48.110;11.522;2023-04-15T15:01:33;11.60;52.50
16521;DHT22;8373;48.110;11.522;2023-04-15T15:04:00;11.70;53.10
16521;DHT22;8373;48.110;11.522;2023-04-15T15:06:27;11.70;53.10
16521;DHT22;8373;48.110;11.522;2023-04-15T15:08:54;11.60;53.00
16521;DHT22;8373;48.110;11.522;2023-04-15T15:11:21;11.50;54.10
16521;DHT22;8373;48.110;11.522;2023-04-15T15:13:48;11.50;55.20
16521;DHT22;8373;48.110;11.522;2023-04-15T15:16:16;11.30;55.90
16521;DHT22;8373;48.110;11.522;2023-04-15T15:18:43;11.20;56.50
16521;DHT22;8373;48.110;11.522;2023-04-15T15:21:10;11.10;57.20
16521;DHT22;8373;48.110;11.522;2023-04-15T15:23:37;11.10;58.10
16521;DHT22;8373;48.110;11.522;2023-04-15T15:26:04;11.00;59.10
16521;DHT22;8373;48.110;11.522;2023-04-15T15:28:31;11.00;60.10
16521;DHT22;8373;48.110;11.522;2023-04-15T15:30:58;10.90;61.30
16521;DHT22;8373;48.110;11.522;2023-04-15T15:33:26;10.90;61.80
16521;DHT22;8373;48.110;11.522;2023-04-15T15:35:53;10.90;62.20
16521;DHT22;8373;48.110;11.522;2023-04-15T15:38:21;10.80;62.90
16521;DHT22;8373;48.110;11.522;2023-04-15T15:40:48;10.70;63.50
16521;DHT22;8373;48.110;11.522;2023-04-15T15:43:15;10.60;63.70
16521;DHT22;8373;48.110;11.522;2023-04-15T15:45:42;10.50;64.70